createdAt,value
2022-11-23T00:02:20.550Z,2.20
2022-11-23T00:05:08.768Z,2.27
2022-11-23T00:07:55.856Z,2.00
2022-11-23T00:10:43.140Z,2.30
2022-11-23T00:13:30.089Z,2.20
2022-11-23T00:16:21.942Z,2.23
2022-11-23T00:19:09.526Z,2.00
2022-11-23T00:21:56.557Z,1.80
2022-11-23T00:24:43.671Z,2.10
2022-11-23T00:27:30.739Z,2.10
2022-11-23T00:30:17.849Z,1.80
2022-11-23T00:33:04.937Z,2.20
2022-11-23T00:36:06.514Z,1.90
2022-11-23T00:38:54.759Z,2.53
2022-11-23T00:41:41.754Z,2.23
2022-11-23T00:44:28.697Z,1.83
2022-11-23T00:47:15.627Z,1.90
2022-11-23T00:50:03.355Z,2.47
2022-11-23T00:52:50.335Z,2.00
2022-11-23T00:55:37.286Z,1.80
2022-11-23T00:58:25.501Z,1.87
2022-11-23T01:01:15.379Z,2.43
2022-11-23T01:04:04.828Z,2.13
2022-11-23T01:06:57.455Z,2.20
2022-11-23T01:09:44.445Z,1.80
2022-11-23T01:12:31.431Z,2.50
2022-11-23T01:15:18.384Z,1.97
2022-11-23T01:18:05.350Z,1.80
2022-11-23T01:20:52.454Z,2.00
2022-11-23T01:23:39.768Z,1.90
2022-11-23T01:26:27.019Z,2.13
2022-11-23T01:29:14.398Z,1.73
2022-11-23T01:32:01.748Z,1.70
2022-11-23T01:34:48.792Z,1.80
2022-11-23T01:37:35.755Z,1.70
2022-11-23T01:40:23.210Z,2.00
2022-11-23T01:43:18.335Z,1.97
2022-11-23T01:46:05.832Z,1.90
2022-11-23T01:49:01.937Z,2.00
2022-11-23T01:51:51.521Z,1.90
2022-11-23T01:54:50.780Z,2.00
2022-11-23T01:57:43.477Z,1.87
2022-11-23T02:00:30.475Z,1.60
2022-11-23T02:03:18.649Z,1.83
2022-11-23T02:06:10.071Z,1.80
2022-11-23T02:08:57.752Z,1.83
2022-11-23T02:11:44.914Z,1.73
2022-11-23T02:14:31.893Z,1.97
2022-11-23T02:17:19.536Z,1.77
2022-11-23T02:20:13.449Z,1.93
2022-11-23T02:23:22.079Z,1.83
2022-11-23T02:26:16.664Z,1.90
2022-11-23T02:29:13.030Z,2.10
2022-11-23T02:32:00.100Z,2.23
2022-11-23T02:34:47.084Z,2.20
2022-11-23T02:37:34.159Z,2.10
2022-11-23T02:40:29.028Z,2.43
2022-11-23T02:43:16.379Z,2.20
2022-11-23T02:46:04.829Z,2.30
2022-11-23T02:48:51.822Z,2.17
2022-11-23T02:51:38.864Z,2.00
2022-11-23T02:54:26.068Z,2.10
2022-11-23T02:57:13.583Z,2.40
2022-11-23T03:00:00.575Z,2.30
2022-11-23T03:02:47.604Z,2.27
2022-11-23T03:05:34.552Z,2.87
2022-11-23T03:08:21.533Z,2.37
2022-11-23T03:11:08.548Z,2.30
2022-11-23T03:13:55.558Z,2.10
2022-11-23T03:16:42.508Z,2.47
2022-11-23T03:19:29.727Z,2.10
2022-11-23T03:22:16.920Z,2.40
2022-11-23T03:25:04.191Z,2.10
2022-11-23T03:27:51.193Z,2.20
2022-11-23T03:30:38.244Z,2.30
2022-11-23T03:33:25.213Z,2.70
2022-11-23T03:36:12.193Z,2.30
2022-11-23T03:38:59.221Z,2.10
2022-11-23T03:41:46.228Z,2.30
2022-11-23T03:44:33.247Z,2.40
2022-11-23T03:47:20.706Z,2.67
2022-11-23T03:50:08.106Z,2.60
2022-11-23T03:52:55.492Z,2.50
2022-11-23T03:55:42.466Z,2.60
2022-11-23T03:58:29.502Z,2.40
2022-11-23T04:01:16.607Z,2.53
2022-11-23T04:04:03.829Z,2.03
2022-11-23T04:06:50.787Z,1.83
2022-11-23T04:09:38.248Z,2.27
2022-11-23T04:12:26.239Z,2.20
2022-11-23T04:15:13.187Z,2.10
2022-11-23T04:18:00.282Z,1.93
2022-11-23T04:20:47.345Z,2.20
2022-11-23T04:23:34.773Z,2.30
2022-11-23T04:26:21.736Z,2.37
2022-11-23T04:29:08.697Z,2.57
2022-11-23T04:31:55.676Z,2.00
2022-11-23T04:34:42.665Z,2.20
2022-11-23T04:37:29.645Z,2.23
2022-11-23T04:40:16.705Z,1.70
2022-11-23T04:43:04.482Z,2.50
2022-11-23T04:45:51.620Z,2.10
2022-11-23T04:48:38.523Z,2.10
2022-11-23T04:51:25.481Z,2.17
2022-11-23T04:54:12.417Z,2.10
2022-11-23T04:56:59.886Z,2.63
2022-11-23T04:59:46.917Z,2.13
2022-11-23T05:02:33.888Z,2.40
2022-11-23T05:05:20.937Z,2.30
2022-11-23T05:08:08.686Z,2.30
2022-11-23T05:10:55.748Z,2.17
2022-11-23T05:13:42.719Z,2.77
2022-11-23T05:16:29.685Z,3.03
2022-11-23T05:19:16.720Z,2.80
2022-11-23T05:22:03.708Z,2.37
2022-11-23T05:24:50.825Z,2.37
2022-11-23T05:27:37.797Z,2.40
2022-11-23T05:30:25.115Z,2.90
2022-11-23T05:33:12.110Z,2.40
2022-11-23T05:35:59.304Z,2.50
2022-11-23T05:38:46.310Z,2.63
2022-11-23T05:41:33.313Z,2.43
2022-11-23T05:44:20.284Z,2.40
2022-11-23T05:47:08.205Z,2.60
2022-11-23T05:49:55.240Z,2.80
2022-11-23T05:52:42.246Z,2.53
2022-11-23T05:55:29.265Z,2.53
2022-11-23T05:58:16.276Z,3.13
2022-11-23T06:01:03.174Z,3.13
2022-11-23T06:03:51.546Z,3.00
2022-11-23T06:06:38.568Z,3.40
2022-11-23T06:09:25.649Z,3.40
2022-11-23T06:12:12.688Z,3.50
2022-11-23T06:14:59.686Z,3.33
2022-11-23T06:17:46.611Z,3.10
2022-11-23T06:20:33.588Z,3.47
2022-11-23T06:23:20.557Z,3.70
2022-11-23T06:26:07.544Z,3.87
2022-11-23T06:28:54.529Z,3.80
2022-11-23T06:31:41.527Z,4.40
2022-11-23T06:34:28.449Z,4.67
2022-11-23T06:37:15.420Z,4.60
2022-11-23T06:40:02.427Z,5.00
2022-11-23T06:42:49.392Z,4.73
2022-11-23T06:45:36.391Z,4.67
2022-11-23T06:48:23.683Z,4.50
2022-11-23T06:51:10.883Z,4.90
2022-11-23T06:53:57.898Z,4.53
2022-11-23T06:56:44.880Z,5.23
2022-11-23T06:59:32.215Z,4.93
2022-11-23T07:02:19.523Z,5.13
2022-11-23T07:05:06.887Z,4.20
2022-11-23T07:07:54.144Z,4.67
2022-11-23T07:10:41.246Z,4.90
2022-11-23T07:13:28.180Z,4.43
2022-11-23T07:16:15.174Z,4.40
2022-11-23T07:19:02.311Z,4.53
2022-11-23T07:21:49.449Z,3.87
2022-11-23T07:24:41.457Z,4.10
2022-11-23T07:27:31.185Z,5.03
2022-11-23T07:30:18.384Z,3.43
2022-11-23T07:33:10.673Z,4.30
2022-11-23T07:36:02.247Z,3.90
2022-11-23T07:38:49.214Z,3.97
2022-11-23T07:41:36.197Z,4.43
2022-11-23T07:44:23.184Z,3.80
2022-11-23T07:47:10.127Z,4.00
2022-11-23T07:49:57.168Z,3.83
2022-11-23T07:52:44.232Z,3.63
2022-11-23T07:55:31.665Z,3.57
2022-11-23T07:58:18.795Z,4.40
2022-11-23T08:01:05.971Z,3.53
2022-11-23T08:03:53.028Z,3.70
2022-11-23T08:06:40.042Z,4.33
2022-11-23T08:09:27.062Z,3.43
2022-11-23T08:12:14.221Z,3.57
2022-11-23T08:15:01.245Z,3.70
2022-11-23T08:17:48.357Z,3.20
2022-11-23T08:20:35.399Z,3.00
2022-11-23T08:23:22.567Z,3.40
2022-11-23T08:26:13.576Z,3.83
2022-11-23T08:29:01.150Z,3.63
2022-11-23T08:31:48.199Z,3.40
2022-11-23T08:34:35.277Z,3.23
2022-11-23T08:37:22.292Z,3.30
2022-11-23T08:40:09.887Z,3.60
2022-11-23T08:42:56.864Z,2.87
2022-11-23T08:45:43.841Z,3.30
2022-11-23T08:48:31.173Z,2.87
2022-11-23T08:51:22.672Z,3.03
2022-11-23T08:54:09.666Z,3.63
2022-11-23T08:56:58.256Z,3.67
2022-11-23T08:59:45.251Z,3.20
2022-11-23T09:02:32.364Z,3.37
2022-11-23T09:05:19.458Z,3.27
2022-11-23T09:08:06.507Z,3.07
2022-11-23T09:10:53.500Z,2.80
2022-11-23T09:13:41.268Z,2.70
2022-11-23T09:16:32.511Z,2.60
2022-11-23T09:19:21.962Z,3.40
2022-11-23T09:22:08.979Z,3.33
2022-11-23T09:24:56.083Z,3.03
2022-11-23T09:27:43.498Z,2.30
2022-11-23T09:30:30.533Z,2.50
2022-11-23T09:33:17.608Z,2.73
2022-11-23T09:36:05.282Z,2.60
2022-11-23T09:38:56.729Z,2.67
2022-11-23T09:42:08.637Z,2.40
2022-11-23T09:44:58.538Z,2.40
2022-11-23T09:48:11.127Z,2.40
2022-11-23T09:51:20.523Z,2.30
2022-11-23T09:54:13.432Z,2.10
2022-11-23T09:57:02.048Z,2.20
2022-11-23T10:00:01.353Z,2.10
2022-11-23T10:02:49.234Z,2.37
2022-11-23T10:05:39.433Z,2.07
2022-11-23T10:08:34.285Z,2.40
2022-11-23T10:11:21.489Z,1.90
2022-11-23T10:14:42.830Z,1.57
2022-11-23T10:17:51.136Z,2.13
2022-11-23T10:20:50.696Z,1.57
2022-11-23T10:23:57.113Z,1.50
2022-11-23T10:26:46.339Z,1.97
2022-11-23T10:29:37.332Z,2.23
2022-11-23T10:32:27.761Z,1.90
2022-11-23T10:35:25.406Z,1.90
2022-11-23T10:38:20.493Z,1.80
2022-11-23T10:41:13.078Z,2.10
2022-11-23T10:44:12.609Z,2.10
2022-11-23T10:47:02.300Z,2.00
2022-11-23T10:49:59.194Z,1.70
2022-11-23T10:52:55.479Z,1.87
2022-11-23T10:55:55.300Z,1.80
2022-11-23T10:58:46.923Z,1.90
2022-11-23T11:01:34.068Z,2.17
2022-11-23T11:04:25.789Z,2.10
2022-11-23T11:07:23.969Z,1.73
2022-11-23T11:10:41.173Z,1.97
2022-11-23T11:13:33.606Z,1.70
2022-11-23T11:16:33.216Z,1.60
2022-11-23T11:19:33.957Z,1.53
2022-11-23T11:22:33.638Z,1.43
2022-11-23T11:25:29.851Z,2.03
2022-11-23T11:28:34.547Z,2.03
2022-11-23T11:31:41.429Z,1.63
2022-11-23T11:34:46.632Z,2.20
2022-11-23T11:37:45.073Z,1.97
2022-11-23T11:40:38.072Z,1.77
2022-11-23T11:43:47.419Z,1.80
2022-11-23T11:46:40.578Z,1.67
2022-11-23T11:49:35.951Z,1.77
2022-11-23T11:52:38.109Z,1.40
2022-11-23T11:55:35.075Z,1.77
2022-11-23T11:58:25.748Z,1.83
2022-11-23T12:01:34.056Z,1.47
2022-11-23T12:04:36.003Z,2.27
2022-11-23T12:07:32.169Z,1.47
2022-11-23T12:10:27.300Z,2.00
2022-11-23T12:13:18.446Z,1.20
2022-11-23T12:16:37.045Z,1.80
2022-11-23T12:19:34.635Z,1.50
2022-11-23T12:22:33.768Z,2.03
2022-11-23T12:25:36.260Z,1.57
2022-11-23T12:28:41.586Z,1.30
2022-11-23T12:31:47.646Z,1.27
2022-11-23T12:34:59.341Z,1.43
2022-11-23T12:38:06.213Z,1.23
2022-11-23T12:41:08.294Z,2.40
2022-11-23T12:44:17.327Z,2.63
2022-11-23T12:47:13.304Z,2.70
2022-11-23T12:50:00.189Z,1.77
2022-11-23T12:52:56.139Z,1.57
2022-11-23T12:56:27.232Z,1.50
2022-11-23T12:59:15.271Z,1.50
2022-11-23T13:02:09.047Z,1.40
2022-11-23T13:05:14.550Z,1.70
2022-11-23T13:08:23.383Z,1.50
2022-11-23T13:11:25.613Z,1.60
2022-11-23T13:14:12.549Z,1.83
2022-11-23T13:17:09.111Z,1.60
2022-11-23T13:20:19.399Z,1.40
2022-11-23T13:23:07.101Z,1.53
2022-11-23T13:26:33.703Z,1.40
2022-11-23T13:29:51.664Z,1.60
2022-11-23T13:32:38.511Z,1.90
2022-11-23T13:35:25.496Z,2.10
2022-11-23T13:38:15.455Z,1.70
2022-11-23T13:41:03.080Z,2.20
2022-11-23T13:43:51.198Z,2.20
2022-11-23T13:46:38.642Z,2.63
2022-11-23T13:49:34.609Z,2.70
2022-11-23T13:52:21.735Z,2.80
2022-11-23T13:55:11.437Z,2.90
2022-11-23T13:58:23.655Z,3.37
2022-11-23T14:01:11.086Z,2.57
2022-11-23T14:04:21.605Z,2.43
2022-11-23T14:07:36.618Z,2.57
2022-11-23T14:10:24.940Z,2.80
2022-11-23T14:13:20.590Z,2.90
2022-11-23T14:16:15.138Z,2.80
2022-11-23T14:19:14.325Z,2.93
2022-11-23T14:22:36.641Z,2.27
2022-11-23T14:25:53.005Z,2.50
2022-11-23T14:28:50.894Z,2.30
2022-11-23T14:31:59.641Z,2.33
2022-11-23T14:35:05.189Z,2.97
2022-11-23T14:38:31.970Z,2.60
2022-11-23T14:41:23.667Z,2.03
2022-11-23T14:44:14.988Z,2.67
2022-11-23T14:47:04.152Z,2.60
2022-11-23T14:49:51.746Z,2.70
2022-11-23T14:52:38.764Z,2.60
2022-11-23T14:55:28.602Z,2.40
2022-11-23T14:58:17.015Z,2.30
2022-11-23T15:01:04.701Z,2.53
2022-11-23T15:04:08.199Z,2.70
2022-11-23T15:07:01.912Z,2.70
2022-11-23T15:10:13.977Z,2.57
2022-11-23T15:13:00.953Z,2.67
2022-11-23T15:15:52.348Z,2.73
2022-11-23T15:18:39.339Z,2.40
2022-11-23T15:21:28.326Z,2.60
2022-11-23T15:24:26.692Z,2.67
2022-11-23T15:27:19.548Z,3.10
2022-11-23T15:30:21.719Z,3.30
2022-11-23T15:33:11.969Z,3.47
2022-11-23T15:35:59.227Z,3.50
2022-11-23T15:38:46.282Z,3.53
2022-11-23T15:41:33.636Z,3.10
2022-11-23T15:44:30.630Z,3.50
2022-11-23T15:47:27.521Z,3.07
2022-11-23T15:50:15.131Z,4.23
2022-11-23T15:53:02.438Z,3.70
2022-11-23T15:55:50.295Z,3.93
2022-11-23T15:58:37.271Z,3.77
2022-11-23T16:01:25.261Z,3.57
2022-11-23T16:04:28.480Z,3.20
2022-11-23T16:07:25.947Z,4.00
2022-11-23T16:10:16.166Z,3.80
2022-11-23T16:13:06.016Z,3.77
2022-11-23T16:16:00.176Z,4.43
2022-11-23T16:18:52.181Z,4.03
2022-11-23T16:21:45.021Z,3.97
2022-11-23T16:24:35.812Z,3.87
2022-11-23T16:27:25.749Z,3.60
2022-11-23T16:30:26.933Z,3.37
2022-11-23T16:33:16.480Z,3.23
2022-11-23T16:36:03.567Z,4.00
2022-11-23T16:38:50.617Z,3.63
2022-11-23T16:41:38.060Z,4.47
2022-11-23T16:44:25.060Z,3.93
2022-11-23T16:47:23.041Z,4.33
2022-11-23T16:50:12.813Z,4.33
2022-11-23T16:53:14.714Z,4.80
2022-11-23T16:56:03.369Z,4.27
2022-11-23T16:58:51.755Z,3.77
2022-11-23T17:01:40.288Z,3.77
2022-11-23T17:04:27.318Z,3.00
2022-11-23T17:07:14.400Z,3.50
2022-11-23T17:10:01.424Z,3.73
2022-11-23T17:12:54.206Z,2.87
2022-11-23T17:15:41.243Z,3.70
2022-11-23T17:18:28.197Z,3.30
2022-11-23T17:21:15.195Z,3.33
2022-11-23T17:24:02.977Z,2.93
2022-11-23T17:26:53.320Z,3.37
2022-11-23T17:29:42.212Z,3.53
2022-11-23T17:32:29.516Z,3.20
2022-11-23T17:35:17.171Z,3.40
2022-11-23T17:38:04.655Z,3.07
2022-11-23T17:40:51.678Z,3.00
2022-11-23T17:43:38.669Z,3.03
2022-11-23T17:46:26.989Z,3.27
2022-11-23T17:49:18.017Z,3.33
2022-11-23T17:52:04.984Z,3.80
2022-11-23T17:54:52.328Z,3.90
2022-11-23T17:57:39.868Z,3.87
2022-11-23T18:00:28.240Z,3.30
2022-11-23T18:03:15.298Z,3.17
2022-11-23T18:06:02.274Z,4.00
2022-11-23T18:08:51.057Z,3.53
2022-11-23T18:11:38.382Z,3.17
2022-11-23T18:14:28.834Z,3.70
2022-11-23T18:17:16.515Z,3.30
2022-11-23T18:20:04.522Z,2.97
2022-11-23T18:22:51.477Z,3.37
2022-11-23T18:25:38.402Z,2.90
2022-11-23T18:28:25.694Z,3.70
2022-11-23T18:31:12.828Z,2.90
2022-11-23T18:34:02.765Z,3.27
2022-11-23T18:36:49.725Z,2.60
2022-11-23T18:39:36.738Z,3.10
2022-11-23T18:42:23.719Z,3.30
2022-11-23T18:45:10.777Z,3.20
2022-11-23T18:47:57.857Z,2.80
2022-11-23T18:50:44.966Z,2.80
2022-11-23T18:53:34.956Z,3.00
2022-11-23T18:56:22.258Z,3.40
2022-11-23T18:59:15.613Z,17.73
2022-11-23T19:02:16.004Z,11.53
2022-11-23T19:05:03.096Z,6.13
2022-11-23T19:07:51.639Z,3.97
2022-11-23T19:10:39.163Z,3.80
2022-11-23T19:13:26.235Z,3.97
2022-11-23T19:16:16.725Z,4.13
2022-11-23T19:19:06.850Z,3.27
2022-11-23T19:21:54.137Z,2.93
2022-11-23T19:24:41.431Z,3.83
2022-11-23T19:27:29.266Z,2.83
2022-11-23T19:30:16.649Z,2.43
2022-11-23T19:33:03.753Z,3.27
2022-11-23T19:35:50.746Z,2.83
2022-11-23T19:38:37.820Z,2.43
2022-11-23T19:41:29.868Z,2.80
2022-11-23T19:44:17.602Z,4.50
2022-11-23T19:47:10.105Z,3.67
2022-11-23T19:50:00.747Z,3.43
2022-11-23T19:53:11.144Z,2.77
2022-11-23T19:56:01.778Z,2.97
2022-11-23T19:58:55.055Z,3.47
2022-11-23T20:01:42.277Z,4.07
2022-11-23T20:04:29.412Z,3.00
2022-11-23T20:07:16.534Z,2.83
2022-11-23T20:10:03.785Z,2.70
2022-11-23T20:12:50.760Z,3.10
2022-11-23T20:15:37.699Z,3.07
2022-11-23T20:18:29.574Z,3.80
2022-11-23T20:21:18.950Z,3.60
2022-11-23T20:24:13.317Z,3.67
2022-11-23T20:27:00.279Z,3.40
2022-11-23T20:29:47.227Z,3.07
2022-11-23T20:32:34.386Z,3.20
2022-11-23T20:35:21.656Z,2.70
2022-11-23T20:38:09.709Z,3.07
2022-11-23T20:40:56.690Z,3.07
2022-11-23T20:43:45.235Z,2.90
2022-11-23T20:49:41.033Z,3.10
2022-11-23T20:52:28.042Z,3.13
2022-11-23T20:55:23.163Z,3.20
2022-11-23T20:58:10.220Z,3.57
2022-11-23T21:00:57.562Z,2.87
2022-11-23T21:03:53.239Z,3.13
2022-11-23T21:06:40.500Z,2.80
2022-11-23T21:09:27.930Z,2.33
2022-11-23T21:12:33.314Z,2.40
2022-11-23T21:15:20.317Z,2.33
2022-11-23T21:18:07.302Z,2.20
2022-11-23T21:20:54.760Z,2.40
2022-11-23T21:23:41.745Z,2.20
2022-11-23T21:26:29.969Z,2.20
2022-11-23T21:29:18.578Z,2.17
2022-11-23T21:32:05.972Z,2.47
2022-11-23T21:34:53.177Z,2.00
2022-11-23T21:37:40.212Z,2.10
2022-11-23T21:40:27.120Z,1.93
2022-11-23T21:43:14.191Z,2.10
2022-11-23T21:46:07.048Z,1.67
2022-11-23T21:48:56.424Z,2.50
2022-11-23T21:51:43.830Z,2.00
2022-11-23T21:54:30.775Z,2.10
2022-11-23T21:57:17.734Z,2.40
2022-11-23T22:00:07.848Z,1.80
2022-11-23T22:02:54.901Z,1.90
2022-11-23T22:05:41.961Z,1.93
2022-11-23T22:08:29.690Z,1.77
2022-11-23T22:11:26.021Z,2.43
2022-11-23T22:14:15.658Z,2.17
2022-11-23T22:17:04.529Z,1.67
2022-11-23T22:19:52.086Z,2.40
2022-11-23T22:22:39.774Z,2.10
2022-11-23T22:25:27.682Z,2.07
2022-11-23T22:28:15.736Z,2.00
2022-11-23T22:31:04.461Z,2.43
2022-11-23T22:33:55.052Z,1.83
2022-11-23T22:36:43.385Z,2.00
2022-11-23T22:39:30.956Z,1.60
2022-11-23T22:42:19.117Z,1.80
2022-11-23T22:45:07.963Z,1.50
2022-11-23T22:47:55.380Z,1.73
2022-11-23T22:50:44.483Z,1.90
2022-11-23T22:53:32.887Z,1.70
2022-11-23T22:56:20.592Z,1.97
2022-11-23T22:59:08.341Z,2.00
2022-11-23T23:01:55.257Z,2.13
2022-11-23T23:04:42.449Z,1.93
2022-11-23T23:07:31.643Z,2.10
2022-11-23T23:10:18.639Z,2.00
2022-11-23T23:13:05.592Z,1.70
2022-11-23T23:16:03.426Z,2.03
2022-11-23T23:18:51.578Z,2.00
2022-11-23T23:21:38.586Z,1.87
2022-11-23T23:24:25.559Z,1.93
2022-11-23T23:27:12.564Z,1.90
2022-11-23T23:30:02.393Z,2.20
2022-11-23T23:32:49.423Z,2.20
2022-11-23T23:35:36.356Z,2.93
2022-11-23T23:38:27.548Z,2.73
2022-11-23T23:41:14.907Z,2.60
2022-11-23T23:44:02.192Z,2.70
2022-11-23T23:46:49.140Z,2.87
2022-11-23T23:49:36.134Z,2.80
2022-11-23T23:52:23.176Z,2.73
2022-11-23T23:55:11.025Z,2.50
2022-11-23T23:57:59.980Z,3.00
